createdAt,value
2019-06-26T00:01:46.962Z,10.75
2019-06-26T00:04:15.545Z,13.43
2019-06-26T00:06:44.063Z,12.23
2019-06-26T00:09:12.606Z,10.90
2019-06-26T00:11:41.383Z,12.93
2019-06-26T00:14:09.898Z,12.70
2019-06-26T00:16:38.428Z,13.90
2019-06-26T00:19:07.050Z,12.25
2019-06-26T00:21:35.818Z,10.80
2019-06-26T00:24:04.394Z,14.68
2019-06-26T00:26:34.431Z,12.23
2019-06-26T00:29:02.902Z,11.60
2019-06-26T00:31:31.386Z,13.22
2019-06-26T00:33:59.844Z,11.57
2019-06-26T00:36:28.311Z,14.25
2019-06-26T00:38:56.831Z,10.50
2019-06-26T00:41:25.332Z,13.18
2019-06-26T00:43:53.779Z,10.65
2019-06-26T00:46:22.272Z,14.93
2019-06-26T00:48:50.783Z,15.32
2019-06-26T00:51:19.367Z,17.23
2019-06-26T00:53:48.068Z,10.88
2019-06-26T00:56:16.612Z,10.98
2019-06-26T00:58:45.063Z,11.25
2019-06-26T01:01:13.718Z,11.22
2019-06-26T01:03:42.318Z,12.63
2019-06-26T01:06:12.431Z,10.75
2019-06-26T01:08:43.304Z,11.10
2019-06-26T01:11:11.820Z,10.18
2019-06-26T01:13:40.534Z,10.70
2019-06-26T01:16:09.003Z,10.78
2019-06-26T01:18:37.520Z,10.43
2019-06-26T01:21:05.977Z,10.70
2019-06-26T01:23:34.415Z,9.73
2019-06-26T01:26:02.903Z,9.95
2019-06-26T01:28:31.401Z,10.90
2019-06-26T01:30:59.925Z,10.00
2019-06-26T01:33:28.381Z,11.45
2019-06-26T01:35:56.842Z,10.65
2019-06-26T01:38:25.279Z,10.32
2019-06-26T01:40:53.798Z,11.45
2019-06-26T01:43:22.309Z,10.85
2019-06-26T01:45:50.769Z,10.18
2019-06-26T01:48:19.244Z,11.78
2019-06-26T01:50:47.783Z,11.48
2019-06-26T01:53:16.239Z,14.28
2019-06-26T01:55:44.722Z,12.28
2019-06-26T01:58:13.361Z,12.37
2019-06-26T02:00:42.266Z,12.40
2019-06-26T02:03:10.797Z,13.75
2019-06-26T02:05:39.302Z,14.65
2019-06-26T02:08:07.771Z,16.20
2019-06-26T02:10:36.222Z,13.38
2019-06-26T02:13:04.680Z,14.43
2019-06-26T02:15:33.132Z,15.58
2019-06-26T02:18:01.672Z,13.18
2019-06-26T02:20:30.235Z,15.43
2019-06-26T02:22:58.784Z,15.68
2019-06-26T02:25:27.234Z,13.60
2019-06-26T02:27:55.706Z,15.08
2019-06-26T02:30:24.294Z,13.43
2019-06-26T02:32:52.839Z,14.33
2019-06-26T02:35:21.428Z,15.03
2019-06-26T02:37:50.154Z,16.20
2019-06-26T02:40:19.237Z,14.58
2019-06-26T02:42:47.787Z,14.13
2019-06-26T02:45:16.443Z,13.88
2019-06-26T02:47:44.904Z,17.20
2019-06-26T02:50:13.517Z,13.00
2019-06-26T02:52:41.982Z,14.23
2019-06-26T02:55:11.788Z,12.68
2019-06-26T02:57:40.310Z,12.83
2019-06-26T03:00:10.026Z,11.93
2019-06-26T03:02:38.559Z,14.93
2019-06-26T03:05:07.746Z,11.70
2019-06-26T03:07:36.242Z,12.05
2019-06-26T03:10:06.700Z,14.20
2019-06-26T03:12:35.518Z,12.82
2019-06-26T03:15:09.763Z,13.20
2019-06-26T03:17:51.013Z,12.15
2019-06-26T03:20:09.258Z,12.05
2019-06-26T03:22:37.725Z,12.88
2019-06-26T03:25:07.039Z,12.35
2019-06-26T03:27:35.586Z,15.08
2019-06-26T03:30:08.169Z,12.45
2019-06-26T03:32:36.612Z,10.85
2019-06-26T03:35:17.494Z,11.35
2019-06-26T03:37:46.094Z,11.40
2019-06-26T03:40:14.888Z,11.97
2019-06-26T03:42:43.602Z,10.98
2019-06-26T03:45:25.004Z,10.65
2019-06-26T03:47:42.647Z,10.15
2019-06-26T03:50:11.496Z,11.22
2019-06-26T03:52:39.940Z,9.95
2019-06-26T03:55:09.520Z,13.88
2019-06-26T03:57:38.092Z,12.50
2019-06-26T04:00:07.413Z,11.97
2019-06-26T04:02:35.861Z,11.63
2019-06-26T04:05:06.243Z,12.25
2019-06-26T04:07:34.687Z,12.15
2019-06-26T04:10:04.356Z,13.10
2019-06-26T04:12:32.830Z,16.87
2019-06-26T04:15:01.364Z,13.28
2019-06-26T04:17:30.038Z,13.38
2019-06-26T04:19:58.603Z,10.55
2019-06-26T04:22:27.037Z,12.40
2019-06-26T04:24:55.696Z,10.00
2019-06-26T04:27:24.135Z,10.08
2019-06-26T04:29:52.575Z,13.13
2019-06-26T04:32:21.102Z,12.37
2019-06-26T04:34:49.693Z,13.15
2019-06-26T04:37:18.219Z,10.93
2019-06-26T04:39:46.650Z,11.93
2019-06-26T04:42:15.193Z,9.45
2019-06-26T04:44:43.650Z,10.88
2019-06-26T04:47:12.118Z,10.35
2019-06-26T04:49:40.614Z,10.68
2019-06-26T04:52:09.167Z,10.70
2019-06-26T04:54:37.626Z,11.10
2019-06-26T04:57:06.147Z,10.45
2019-06-26T04:59:34.794Z,10.40
2019-06-26T05:02:03.354Z,10.85
2019-06-26T05:04:31.806Z,12.80
2019-06-26T05:07:00.512Z,12.10
2019-06-26T05:09:29.022Z,12.53
2019-06-26T05:11:57.982Z,12.20
2019-06-26T05:14:26.600Z,14.15
2019-06-26T05:16:55.049Z,10.45
2019-06-26T05:19:30.859Z,11.43
2019-06-26T05:21:59.498Z,10.05
2019-06-26T05:24:28.162Z,13.25
2019-06-26T05:26:56.649Z,11.95
2019-06-26T05:29:25.114Z,11.33
2019-06-26T05:31:53.659Z,13.90
2019-06-26T05:34:24.590Z,11.03
2019-06-26T05:36:53.131Z,13.98
2019-06-26T05:39:21.655Z,16.37
2019-06-26T05:41:50.157Z,12.80
2019-06-26T05:44:18.787Z,13.78
2019-06-26T05:46:47.253Z,13.65
2019-06-26T05:49:15.803Z,12.88
2019-06-26T05:51:44.590Z,10.75
2019-06-26T05:54:13.130Z,13.72
2019-06-26T05:56:50.490Z,9.55
2019-06-26T05:59:19.388Z,12.33
2019-06-26T06:01:47.820Z,12.90
2019-06-26T06:04:16.439Z,16.02
2019-06-26T06:06:44.929Z,10.32
2019-06-26T06:09:13.414Z,10.95
2019-06-26T06:11:42.040Z,11.53
2019-06-26T06:14:10.523Z,16.05
2019-06-26T06:16:47.508Z,12.05
2019-06-26T06:19:09.225Z,9.73
2019-06-26T06:21:37.675Z,10.10
2019-06-26T06:24:06.338Z,13.08
2019-06-26T06:26:34.946Z,13.48
2019-06-26T06:29:03.953Z,10.55
2019-06-26T06:31:32.406Z,12.50
2019-06-26T06:34:00.945Z,12.45
2019-06-26T06:36:29.378Z,14.73
2019-06-26T06:38:57.841Z,10.18
2019-06-26T06:41:26.272Z,9.60
2019-06-26T06:43:54.773Z,14.30
2019-06-26T06:46:23.238Z,13.32
2019-06-26T06:48:51.675Z,10.03
2019-06-26T06:51:20.130Z,10.90
2019-06-26T06:53:48.643Z,16.00
2019-06-26T06:56:17.258Z,15.98
2019-06-26T06:58:45.781Z,10.82
2019-06-26T07:01:14.351Z,15.53
2019-06-26T07:03:42.843Z,11.73
2019-06-26T07:06:11.386Z,14.73
2019-06-26T07:08:39.968Z,10.38
2019-06-26T07:11:08.911Z,12.55
2019-06-26T07:13:37.339Z,12.18
2019-06-26T07:16:08.667Z,12.35
2019-06-26T07:18:37.094Z,9.93
2019-06-26T07:21:05.621Z,14.15
2019-06-26T07:23:34.173Z,11.63
2019-06-26T07:26:02.642Z,16.57
2019-06-26T07:28:31.094Z,13.22
2019-06-26T07:30:59.566Z,14.30
2019-06-26T07:33:27.995Z,15.28
2019-06-26T07:35:56.521Z,11.08
2019-06-26T07:38:24.950Z,9.05
2019-06-26T07:40:53.418Z,14.95
2019-06-26T07:43:21.936Z,12.03
2019-06-26T07:45:50.458Z,13.38
2019-06-26T07:48:18.896Z,9.23
2019-06-26T07:50:47.327Z,12.07
2019-06-26T07:53:15.788Z,13.00
2019-06-26T07:55:44.232Z,9.35
2019-06-26T07:58:13.082Z,10.98
2019-06-26T08:00:41.518Z,20.35
2019-06-26T08:03:10.078Z,10.50
2019-06-26T08:05:42.476Z,9.18
2019-06-26T08:08:08.732Z,12.95
2019-06-26T08:10:37.170Z,14.45
2019-06-26T08:13:05.629Z,9.13
2019-06-26T08:15:34.050Z,11.83
2019-06-26T08:18:02.589Z,10.15
2019-06-26T08:20:31.017Z,11.80
2019-06-26T08:22:59.628Z,11.05
2019-06-26T08:25:28.053Z,11.10
2019-06-26T08:27:56.800Z,11.55
2019-06-26T08:30:25.336Z,10.05
2019-06-26T08:32:53.798Z,7.95
2019-06-26T08:35:22.302Z,13.45
2019-06-26T08:37:50.842Z,8.63
2019-06-26T08:40:19.678Z,11.45
2019-06-26T08:42:48.155Z,11.03
2019-06-26T08:45:17.232Z,9.88
2019-06-26T08:47:45.795Z,12.07
2019-06-26T08:50:16.251Z,9.05
2019-06-26T08:52:44.699Z,8.55
2019-06-26T08:55:13.790Z,10.55
2019-06-26T08:57:42.293Z,7.90
2019-06-26T09:00:12.004Z,9.93
2019-06-26T09:02:40.597Z,9.83
2019-06-26T09:05:09.502Z,12.80
2019-06-26T09:07:37.938Z,11.00
2019-06-26T09:10:10.198Z,11.35
2019-06-26T09:12:38.729Z,10.25
2019-06-26T09:15:07.719Z,9.53
2019-06-26T09:17:36.902Z,10.68
2019-06-26T09:20:06.086Z,15.40
2019-06-26T09:22:34.814Z,14.20
2019-06-26T09:25:20.155Z,12.23
2019-06-26T09:27:34.330Z,10.35
2019-06-26T09:30:03.034Z,11.85
2019-06-26T09:32:31.554Z,8.80
2019-06-26T09:35:00.079Z,8.05
2019-06-26T09:37:28.713Z,13.03
2019-06-26T09:39:57.302Z,12.28
2019-06-26T09:42:25.745Z,12.73
2019-06-26T09:44:54.275Z,7.62
2019-06-26T09:47:22.737Z,9.95
2019-06-26T09:49:51.271Z,9.90
2019-06-26T09:52:19.836Z,8.85
2019-06-26T09:54:48.557Z,8.88
2019-06-26T09:57:16.999Z,11.60
2019-06-26T09:59:45.543Z,7.28
2019-06-26T10:02:14.047Z,9.43
2019-06-26T10:04:42.683Z,14.50
2019-06-26T10:07:11.156Z,11.55
2019-06-26T10:09:40.803Z,10.03
2019-06-26T10:12:09.353Z,9.38
2019-06-26T10:14:47.174Z,8.95
2019-06-26T10:17:08.102Z,9.10
2019-06-26T10:19:36.699Z,9.58
2019-06-26T10:22:05.234Z,8.60
2019-06-26T10:24:33.756Z,11.80
2019-06-26T10:27:02.277Z,11.12
2019-06-26T10:29:33.367Z,10.38
2019-06-26T10:32:02.765Z,8.25
2019-06-26T10:34:31.293Z,9.08
2019-06-26T10:36:59.760Z,13.40
2019-06-26T10:39:28.181Z,8.83
2019-06-26T10:41:56.834Z,10.40
2019-06-26T10:44:25.682Z,7.22
2019-06-26T10:46:54.139Z,8.83
2019-06-26T10:49:26.948Z,8.80
2019-06-26T10:51:52.975Z,10.98
2019-06-26T10:54:21.425Z,11.73
2019-06-26T10:56:49.910Z,12.73
2019-06-26T10:59:18.354Z,17.40
2019-06-26T11:01:47.090Z,12.05
2019-06-26T11:04:15.538Z,11.10
2019-06-26T11:06:44.098Z,15.75
2019-06-26T11:09:12.602Z,15.98
2019-06-26T11:11:41.095Z,17.65
2019-06-26T11:14:09.548Z,11.85
2019-06-26T11:16:38.065Z,13.78
2019-06-26T11:19:06.698Z,15.13
2019-06-26T11:21:35.249Z,23.55
2019-06-26T11:24:03.862Z,17.42
2019-06-26T11:26:32.393Z,11.28
2019-06-26T11:29:00.936Z,17.42
2019-06-26T11:31:29.568Z,10.88
2019-06-26T11:33:58.149Z,10.05
2019-06-26T11:36:26.604Z,13.18
2019-06-26T11:38:55.196Z,10.95
2019-06-26T11:41:23.775Z,11.00
2019-06-26T11:43:52.235Z,12.37
2019-06-26T11:46:20.671Z,14.80
2019-06-26T11:48:49.255Z,13.53
2019-06-26T11:51:17.763Z,15.93
2019-06-26T11:53:46.247Z,11.25
2019-06-26T11:56:14.804Z,14.07
2019-06-26T11:58:43.335Z,16.40
2019-06-26T12:01:11.844Z,14.93
2019-06-26T12:03:40.371Z,17.00
2019-06-26T12:06:18.305Z,15.85
2019-06-26T12:08:58.173Z,12.88
2019-06-26T12:11:26.618Z,16.70
2019-06-26T12:13:55.193Z,16.20
2019-06-26T12:16:23.717Z,17.50
2019-06-26T12:18:52.244Z,21.68
2019-06-26T12:21:20.679Z,16.70
2019-06-26T12:23:49.161Z,23.85
2019-06-26T12:26:17.696Z,19.67
2019-06-26T12:28:46.270Z,15.43
2019-06-26T12:31:14.749Z,16.80
2019-06-26T12:33:43.482Z,13.00
2019-06-26T12:36:12.039Z,21.12
2019-06-26T12:38:40.564Z,15.70
2019-06-26T12:41:09.107Z,17.87
2019-06-26T12:43:37.582Z,20.50
2019-06-26T12:46:06.130Z,14.60
2019-06-26T12:48:34.658Z,16.30
2019-06-26T12:51:10.290Z,17.27
2019-06-26T12:53:38.954Z,23.07
2019-06-26T12:56:07.492Z,18.02
2019-06-26T12:58:36.449Z,19.80
2019-06-26T13:01:04.965Z,17.60
2019-06-26T13:03:33.436Z,16.85
2019-06-26T13:06:02.273Z,14.33
2019-06-26T13:08:30.710Z,18.62
2019-06-26T13:10:59.541Z,15.63
2019-06-26T13:13:28.054Z,11.15
2019-06-26T13:15:56.521Z,14.13
2019-06-26T13:18:25.203Z,20.55
2019-06-26T13:20:53.968Z,21.37
2019-06-26T13:23:22.581Z,15.50
2019-06-26T13:25:51.230Z,18.00
2019-06-26T13:28:19.686Z,13.38
2019-06-26T13:30:48.241Z,20.92
2019-06-26T13:33:16.761Z,69.62
2019-06-26T13:35:45.227Z,39.55
2019-06-26T13:38:13.822Z,21.52
2019-06-26T13:40:42.346Z,13.35
2019-06-26T13:43:10.865Z,17.50
2019-06-26T13:45:39.416Z,21.48
2019-06-26T13:48:08.119Z,13.62
2019-06-26T13:50:36.666Z,10.32
2019-06-26T13:53:05.226Z,24.90
2019-06-26T13:55:33.823Z,13.00
2019-06-26T13:58:02.433Z,14.68
2019-06-26T14:00:30.878Z,14.35
2019-06-26T14:02:59.493Z,13.72
2019-06-26T14:05:29.558Z,14.07
2019-06-26T14:07:58.402Z,17.37
2019-06-26T14:10:26.930Z,17.10
2019-06-26T14:12:55.477Z,11.65
2019-06-26T14:15:24.666Z,16.65
2019-06-26T14:17:53.185Z,16.63
2019-06-26T14:20:21.704Z,12.78
2019-06-26T14:22:50.393Z,16.70
2019-06-26T14:25:18.998Z,12.78
2019-06-26T14:27:48.201Z,20.60
2019-06-26T14:30:16.862Z,19.17
2019-06-26T14:32:45.477Z,20.68
2019-06-26T14:35:14.056Z,13.55
2019-06-26T14:37:42.542Z,15.48
2019-06-26T14:40:11.297Z,12.15
2019-06-26T14:42:39.850Z,16.42
2019-06-26T14:45:08.840Z,19.15
2019-06-26T14:47:37.391Z,18.52
2019-06-26T14:50:06.754Z,19.00
2019-06-26T14:52:35.310Z,16.90
2019-06-26T14:55:05.703Z,14.83
2019-06-26T14:57:34.181Z,12.23
2019-06-26T15:00:03.057Z,14.63
2019-06-26T15:02:31.995Z,17.55
2019-06-26T15:05:00.665Z,20.00
2019-06-26T15:07:29.108Z,12.82
2019-06-26T15:09:57.555Z,18.23
2019-06-26T15:12:26.076Z,13.85
2019-06-26T15:14:54.588Z,18.77
2019-06-26T15:17:23.101Z,13.43
2019-06-26T15:19:51.866Z,16.32
2019-06-26T15:22:20.449Z,14.20
2019-06-26T15:24:49.635Z,21.68
2019-06-26T15:27:18.070Z,14.28
2019-06-26T15:29:47.329Z,15.48
2019-06-26T15:32:15.954Z,16.35
2019-06-26T15:34:44.416Z,16.40
2019-06-26T15:37:12.853Z,26.73
2019-06-26T15:39:41.329Z,19.95
2019-06-26T15:42:09.902Z,16.02
2019-06-26T15:44:38.455Z,19.98
2019-06-26T15:47:06.928Z,14.75
2019-06-26T15:49:35.541Z,12.75
2019-06-26T15:52:14.650Z,20.25
2019-06-26T15:54:34.477Z,14.87
2019-06-26T15:57:03.029Z,16.50
2019-06-26T15:59:31.549Z,14.98
2019-06-26T16:02:00.164Z,17.00
2019-06-26T16:04:28.625Z,16.82
2019-06-26T16:06:57.069Z,24.55
2019-06-26T16:09:25.522Z,18.90
2019-06-26T16:11:54.113Z,11.73
2019-06-26T16:14:22.660Z,19.23
2019-06-26T16:16:53.089Z,20.82
2019-06-26T16:19:23.302Z,18.02
2019-06-26T16:21:51.774Z,16.80
2019-06-26T16:24:20.259Z,15.35
2019-06-26T16:26:48.777Z,24.15
2019-06-26T16:29:17.513Z,21.37
2019-06-26T16:31:45.958Z,19.07
2019-06-26T16:34:14.456Z,14.78
2019-06-26T16:36:42.949Z,21.62
2019-06-26T16:39:11.515Z,18.35
2019-06-26T16:41:40.046Z,18.15
2019-06-26T16:44:08.478Z,30.35
2019-06-26T16:46:36.950Z,27.07
2019-06-26T16:49:05.546Z,18.80
2019-06-26T16:51:34.088Z,18.25
2019-06-26T16:54:02.646Z,22.30
2019-06-26T16:56:31.184Z,21.77
2019-06-26T16:58:59.630Z,14.85
2019-06-26T17:01:28.098Z,20.25
2019-06-26T17:03:57.033Z,13.90
2019-06-26T17:06:26.003Z,18.00
2019-06-26T17:08:58.628Z,19.17
2019-06-26T17:11:27.167Z,12.60
2019-06-26T17:13:55.826Z,18.42
2019-06-26T17:16:24.365Z,21.95
2019-06-26T17:18:52.899Z,15.70
2019-06-26T17:21:21.424Z,20.82
2019-06-26T17:23:49.874Z,24.15
2019-06-26T17:26:18.434Z,19.37
2019-06-26T17:28:46.872Z,21.65
2019-06-26T17:31:15.437Z,15.48
2019-06-26T17:33:43.883Z,19.35
2019-06-26T17:36:12.334Z,22.98
2019-06-26T17:38:40.811Z,23.52
2019-06-26T17:41:09.298Z,22.20
2019-06-26T17:43:37.974Z,18.40
2019-06-26T17:46:06.774Z,17.67
2019-06-26T17:48:37.659Z,19.90
2019-06-26T17:51:06.320Z,14.95
2019-06-26T17:53:34.776Z,18.62
2019-06-26T17:56:03.413Z,15.28
2019-06-26T17:58:31.895Z,16.80
2019-06-26T18:01:00.601Z,18.35
2019-06-26T18:03:29.067Z,17.27
2019-06-26T18:05:57.668Z,21.00
2019-06-26T18:08:26.110Z,18.02
2019-06-26T18:10:54.552Z,16.97
2019-06-26T18:13:23.112Z,19.57
2019-06-26T18:15:51.609Z,13.80
2019-06-26T18:18:20.166Z,20.35
2019-06-26T18:20:48.626Z,15.35
2019-06-26T18:23:17.107Z,19.20
2019-06-26T18:25:53.834Z,21.73
2019-06-26T18:28:15.893Z,16.05
2019-06-26T18:30:44.336Z,24.77
2019-06-26T18:33:12.878Z,17.10
2019-06-26T18:35:41.390Z,14.80
2019-06-26T18:38:09.945Z,15.85
2019-06-26T18:40:38.388Z,17.10
2019-06-26T18:43:06.938Z,13.03
2019-06-26T18:45:35.455Z,11.30
2019-06-26T18:48:04.171Z,14.70
2019-06-26T18:50:32.797Z,19.82
2019-06-26T18:53:01.543Z,17.82
2019-06-26T18:55:30.157Z,15.20
2019-06-26T18:57:58.922Z,21.37
2019-06-26T19:00:27.410Z,13.40
2019-06-26T19:02:55.981Z,17.05
2019-06-26T19:05:24.572Z,17.37
2019-06-26T19:07:53.151Z,21.15
2019-06-26T19:10:21.596Z,22.32
2019-06-26T19:12:50.270Z,17.17
2019-06-26T19:15:18.823Z,22.00
2019-06-26T19:17:47.451Z,19.52
2019-06-26T19:20:16.720Z,13.15
2019-06-26T19:22:47.436Z,17.90
2019-06-26T19:25:16.045Z,18.07
2019-06-26T19:27:45.426Z,16.82
2019-06-26T19:30:15.826Z,17.00
2019-06-26T19:32:44.280Z,16.87
2019-06-26T19:35:20.545Z,12.70
2019-06-26T19:37:43.239Z,17.07
2019-06-26T19:40:12.454Z,16.67
2019-06-26T19:42:40.915Z,16.45
2019-06-26T19:45:12.432Z,19.82
2019-06-26T19:47:41.028Z,15.25
2019-06-26T19:50:11.546Z,18.95
2019-06-26T19:52:40.058Z,16.85
2019-06-26T19:55:08.810Z,19.87
2019-06-26T19:57:37.234Z,17.73
2019-06-26T20:00:08.523Z,19.15
2019-06-26T20:02:36.959Z,16.35
2019-06-26T20:05:08.082Z,16.85
2019-06-26T20:07:37.127Z,12.82
2019-06-26T20:10:07.148Z,12.75
2019-06-26T20:12:35.619Z,12.95
2019-06-26T20:15:05.663Z,11.83
2019-06-26T20:17:34.281Z,11.35
2019-06-26T20:20:03.787Z,11.08
2019-06-26T20:22:32.347Z,9.78
2019-06-26T20:25:03.040Z,11.28
2019-06-26T20:27:31.570Z,13.80
2019-06-26T20:30:00.104Z,14.38
2019-06-26T20:32:28.614Z,14.55
2019-06-26T20:34:57.062Z,16.48
2019-06-26T20:37:25.534Z,11.88
2019-06-26T20:39:54.116Z,16.12
2019-06-26T20:42:22.591Z,18.15
2019-06-26T20:44:51.197Z,13.48
2019-06-26T20:47:19.749Z,19.23
2019-06-26T20:49:53.113Z,14.20
2019-06-26T20:52:18.425Z,17.25
2019-06-26T20:55:00.077Z,13.48
2019-06-26T20:57:17.446Z,12.40
2019-06-26T20:59:45.949Z,11.55
2019-06-26T21:02:14.424Z,14.30
2019-06-26T21:04:43.154Z,15.13
2019-06-26T21:07:11.677Z,13.22
2019-06-26T21:09:40.186Z,13.80
2019-06-26T21:12:08.884Z,12.33
2019-06-26T21:14:37.340Z,12.95
2019-06-26T21:17:05.908Z,13.32
2019-06-26T21:19:34.426Z,12.45
2019-06-26T21:22:02.908Z,15.60
2019-06-26T21:24:31.449Z,12.88
2019-06-26T21:26:59.996Z,17.27
2019-06-26T21:29:29.518Z,15.28
2019-06-26T21:31:58.049Z,18.27
2019-06-26T21:34:26.644Z,18.17
2019-06-26T21:36:55.285Z,13.55
2019-06-26T21:39:23.798Z,14.25
2019-06-26T21:41:52.337Z,14.55
2019-06-26T21:44:21.237Z,13.83
2019-06-26T21:46:49.716Z,14.43
2019-06-26T21:49:18.192Z,11.28
2019-06-26T21:51:46.757Z,15.00
2019-06-26T21:54:15.205Z,10.93
2019-06-26T21:56:43.684Z,11.83
2019-06-26T21:59:12.166Z,20.85
2019-06-26T22:01:40.730Z,12.33
2019-06-26T22:04:09.675Z,16.48
2019-06-26T22:06:38.627Z,16.42
2019-06-26T22:09:08.338Z,16.12
2019-06-26T22:11:36.901Z,21.62
2019-06-26T22:14:07.307Z,32.40
2019-06-26T22:16:35.882Z,26.73
2019-06-26T22:19:04.465Z,28.20
2019-06-26T22:21:32.908Z,22.05
2019-06-26T22:24:01.383Z,26.73
2019-06-26T22:26:29.932Z,22.20
2019-06-26T22:28:58.622Z,31.23
2019-06-26T22:31:27.144Z,20.48
2019-06-26T22:33:55.686Z,22.58
2019-06-26T22:36:24.389Z,24.67
2019-06-26T22:38:53.105Z,25.48
2019-06-26T22:41:21.640Z,29.63
2019-06-26T22:43:50.112Z,23.98
2019-06-26T22:46:18.558Z,25.32
2019-06-26T22:48:47.143Z,24.32
2019-06-26T22:51:15.667Z,23.30
2019-06-26T22:53:44.136Z,32.10
2019-06-26T22:56:12.767Z,33.08
2019-06-26T22:58:41.410Z,20.52
2019-06-26T23:01:09.968Z,22.17
2019-06-26T23:03:38.456Z,39.90
2019-06-26T23:06:06.918Z,21.27
2019-06-26T23:08:35.372Z,18.85
2019-06-26T23:11:03.924Z,24.45
2019-06-26T23:13:32.372Z,21.45
2019-06-26T23:16:01.015Z,29.70
2019-06-26T23:18:29.520Z,28.38
2019-06-26T23:20:58.074Z,21.10
2019-06-26T23:23:26.574Z,23.65
2019-06-26T23:25:56.087Z,22.60
2019-06-26T23:28:24.656Z,26.82
2019-06-26T23:30:53.227Z,25.72
2019-06-26T23:33:22.345Z,18.50
2019-06-26T23:35:51.183Z,17.87
2019-06-26T23:38:19.799Z,20.05
2019-06-26T23:40:48.345Z,21.45
2019-06-26T23:43:16.806Z,18.90
2019-06-26T23:45:45.346Z,19.62
2019-06-26T23:48:13.804Z,20.40
2019-06-26T23:50:42.430Z,26.15
2019-06-26T23:53:10.888Z,28.12
2019-06-26T23:55:39.703Z,20.97
2019-06-26T23:58:08.215Z,25.15
